sensor_id;sensor_type;location;lat;lon;timestamp;pressure;altitude;pressure_sealevel;temperature;humidity
5954;BME280;3002;42.642;24.812;2022-11-15T00:01:38;97107.59;;;12.46;100.00
5954;BME280;3002;42.642;24.812;2022-11-15T00:04:06;97104.44;;;12.39;100.00
5954;BME280;3002;42.642;24.812;2022-11-15T00:06:32;97074.44;;;11.93;100.00
5954;BME280;3002;42.642;24.812;2022-11-15T00:09:00;97082.72;;;12.01;100.00
5954;BME280;3002;42.642;24.812;2022-11-15T00:11:29;97078.44;;;12.00;100.00
5954;BME280;3002;42.642;24.812;2022-11-15T00:13:57;97103.81;;;12.18;100.00
5954;BME280;3002;42.642;24.812;2022-11-15T00:16:23;97113.72;;;12.23;100.00
5954;BME280;3002;42.642;24.812;2022-11-15T00:18:49;97100.28;;;12.23;100.00
5954;BME280;3002;42.642;24.812;2022-11-15T00:21:16;97105.66;;;12.23;100.00
5954;BME280;3002;42.642;24.812;2022-11-15T00:23:42;97101.50;;;12.07;100.00
5954;BME280;3002;42.642;24.812;2022-11-15T00:26:11;97109.50;;;12.46;100.00
5954;BME280;3002;42.642;24.812;2022-11-15T00:28:37;97101.00;;;12.33;100.00
5954;BME280;3002;42.642;24.812;2022-11-15T00:31:06;97090.47;;;12.37;100.00
5954;BME280;3002;42.642;24.812;2022-11-15T00:33:33;97053.75;;;12.22;100.00
5954;BME280;3002;42.642;24.812;2022-11-15T00:36:03;97053.72;;;12.27;100.00
5954;BME280;3002;42.642;24.812;2022-11-15T00:38:33;97036.06;;;12.16;100.00
5954;BME280;3002;42.642;24.812;2022-11-15T00:41:00;97068.22;;;12.31;100.00
5954;BME280;3002;42.642;24.812;2022-11-15T00:43:26;97049.44;;;12.26;100.00
5954;BME280;3002;42.642;24.812;2022-11-15T00:46:01;97064.25;;;12.24;100.00
5954;BME280;3002;42.642;24.812;2022-11-15T00:48:28;97013.22;;;11.85;100.00
5954;BME280;3002;42.642;24.812;2022-11-15T00:50:53;97024.34;;;12.07;100.00
5954;BME280;3002;42.642;24.812;2022-11-15T00:53:19;97046.03;;;12.16;100.00
5954;BME280;3002;42.642;24.812;2022-11-15T00:55:46;97049.72;;;12.54;100.00
5954;BME280;3002;42.642;24.812;2022-11-15T00:58:11;97046.66;;;12.37;100.00
5954;BME280;3002;42.642;24.812;2022-11-15T01:00:37;97025.94;;;12.08;100.00
5954;BME280;3002;42.642;24.812;2022-11-15T01:03:02;97064.72;;;12.60;100.00
5954;BME280;3002;42.642;24.812;2022-11-15T01:05:28;97051.81;;;12.57;100.00
5954;BME280;3002;42.642;24.812;2022-11-15T01:07:54;97018.53;;;12.24;100.00
5954;BME280;3002;42.642;24.812;2022-11-15T01:10:21;97010.94;;;12.31;100.00
5954;BME280;3002;42.642;24.812;2022-11-15T01:12:47;97049.28;;;12.42;100.00
5954;BME280;3002;42.642;24.812;2022-11-15T01:15:13;97031.16;;;12.23;100.00
5954;BME280;3002;42.642;24.812;2022-11-15T01:17:38;97017.28;;;12.11;100.00
5954;BME280;3002;42.642;24.812;2022-11-15T01:20:04;97043.97;;;12.37;100.00
5954;BME280;3002;42.642;24.812;2022-11-15T01:22:30;97020.94;;;12.25;100.00
5954;BME280;3002;42.642;24.812;2022-11-15T01:24:55;97010.22;;;12.20;100.00
5954;BME280;3002;42.642;24.812;2022-11-15T01:27:21;97029.97;;;12.35;100.00
5954;BME280;3002;42.642;24.812;2022-11-15T01:29:46;97026.94;;;10.89;100.00
5954;BME280;3002;42.642;24.812;2022-11-15T01:32:12;97066.31;;;11.59;100.00
5954;BME280;3002;42.642;24.812;2022-11-15T01:34:38;97022.38;;;11.78;100.00
5954;BME280;3002;42.642;24.812;2022-11-15T01:37:03;97040.97;;;12.09;100.00
5954;BME280;3002;42.642;24.812;2022-11-15T01:39:29;97036.28;;;11.51;100.00
5954;BME280;3002;42.642;24.812;2022-11-15T01:41:54;97040.09;;;11.85;100.00
5954;BME280;3002;42.642;24.812;2022-11-15T01:44:40;97058.03;;;12.52;100.00
5954;BME280;3002;42.642;24.812;2022-11-15T01:47:13;97014.22;;;12.23;100.00
5954;BME280;3002;42.642;24.812;2022-11-15T01:49:55;97001.16;;;12.11;100.00
5954;BME280;3002;42.642;24.812;2022-11-15T01:52:25;97012.97;;;12.15;100.00
5954;BME280;3002;42.642;24.812;2022-11-15T01:55:30;97041.16;;;12.71;100.00
5954;BME280;3002;42.642;24.812;2022-11-15T01:57:59;97017.88;;;12.61;100.00
5954;BME280;3002;42.642;24.812;2022-11-15T02:00:24;97011.41;;;12.38;100.00
5954;BME280;3002;42.642;24.812;2022-11-15T02:02:50;97007.84;;;12.43;100.00
5954;BME280;3002;42.642;24.812;2022-11-15T02:05:16;97014.78;;;12.49;100.00
5954;BME280;3002;42.642;24.812;2022-11-15T02:07:41;96998.91;;;12.47;100.00
5954;BME280;3002;42.642;24.812;2022-11-15T02:10:13;96994.50;;;12.32;100.00
5954;BME280;3002;42.642;24.812;2022-11-15T02:12:40;97048.81;;;12.58;100.00
5954;BME280;3002;42.642;24.812;2022-11-15T02:15:07;97008.75;;;12.33;100.00
5954;BME280;3002;42.642;24.812;2022-11-15T02:18:03;97020.97;;;12.73;100.00
5954;BME280;3002;42.642;24.812;2022-11-15T02:28:51;97032.97;;;12.81;96.19
5954;BME280;3002;42.642;24.812;2022-11-15T02:31:44;97034.53;;;12.87;100.00
5954;BME280;3002;42.642;24.812;2022-11-15T02:37:59;97024.09;;;12.32;100.00
5954;BME280;3002;42.642;24.812;2022-11-15T02:40:41;97034.47;;;12.44;100.00
5954;BME280;3002;42.642;24.812;2022-11-15T02:43:11;97021.31;;;12.43;100.00
5954;BME280;3002;42.642;24.812;2022-11-15T02:46:06;97036.06;;;12.16;100.00
5954;BME280;3002;42.642;24.812;2022-11-15T02:48:33;97010.59;;;12.09;100.00
5954;BME280;3002;42.642;24.812;2022-11-15T02:50:59;97034.94;;;12.22;100.00
5954;BME280;3002;42.642;24.812;2022-11-15T02:53:25;97029.75;;;12.31;100.00
5954;BME280;3002;42.642;24.812;2022-11-15T02:55:53;97002.78;;;12.12;100.00
5954;BME280;3002;42.642;24.812;2022-11-15T03:07:16;97025.81;;;12.47;100.00
5954;BME280;3002;42.642;24.812;2022-11-15T03:10:08;96978.75;;;12.21;100.00
5954;BME280;3002;42.642;24.812;2022-11-15T03:18:37;97007.59;;;11.42;100.00
5954;BME280;3002;42.642;24.812;2022-11-15T03:21:07;96994.28;;;11.21;100.00
5954;BME280;3002;42.642;24.812;2022-11-15T03:23:36;97011.25;;;11.17;100.00
5954;BME280;3002;42.642;24.812;2022-11-15T03:26:05;96993.25;;;11.22;100.00
5954;BME280;3002;42.642;24.812;2022-11-15T03:28:42;96988.16;;;11.55;100.00
5954;BME280;3002;42.642;24.812;2022-11-15T03:31:12;96983.03;;;11.64;100.00
5954;BME280;3002;42.642;24.812;2022-11-15T03:33:58;97003.53;;;11.89;100.00
5954;BME280;3002;42.642;24.812;2022-11-15T03:36:25;97014.94;;;12.04;100.00
5954;BME280;3002;42.642;24.812;2022-11-15T03:38:59;97009.09;;;11.97;100.00
5954;BME280;3002;42.642;24.812;2022-11-15T03:41:40;97005.59;;;11.97;100.00
5954;BME280;3002;42.642;24.812;2022-11-15T03:45:05;97017.88;;;12.08;100.00
5954;BME280;3002;42.642;24.812;2022-11-15T03:47:28;97005.56;;;12.31;100.00
5954;BME280;3002;42.642;24.812;2022-11-15T03:50:17;97003.88;;;12.35;100.00
5954;BME280;3002;42.642;24.812;2022-11-15T03:52:46;96969.59;;;12.22;100.00
5954;BME280;3002;42.642;24.812;2022-11-15T03:55:15;96992.16;;;12.26;100.00
5954;BME280;3002;42.642;24.812;2022-11-15T03:57:41;96956.47;;;11.91;100.00
5954;BME280;3002;42.642;24.812;2022-11-15T04:00:07;97003.84;;;12.11;100.00
5954;BME280;3002;42.642;24.812;2022-11-15T04:02:33;96998.03;;;11.99;100.00
5954;BME280;3002;42.642;24.812;2022-11-15T04:04:59;96950.59;;;11.89;100.00
5954;BME280;3002;42.642;24.812;2022-11-15T04:07:24;96993.22;;;12.01;100.00
5954;BME280;3002;42.642;24.812;2022-11-15T04:09:50;96967.78;;;11.88;100.00
5954;BME280;3002;42.642;24.812;2022-11-15T04:12:38;96986.22;;;12.00;100.00
5954;BME280;3002;42.642;24.812;2022-11-15T04:15:10;96991.13;;;12.46;100.00
5954;BME280;3002;42.642;24.812;2022-11-15T04:17:47;96983.25;;;12.54;100.00
5954;BME280;3002;42.642;24.812;2022-11-15T04:20:17;96981.09;;;12.27;100.00
5954;BME280;3002;42.642;24.812;2022-11-15T04:23:03;96985.75;;;12.46;100.00
5954;BME280;3002;42.642;24.812;2022-11-15T04:25:51;96962.38;;;12.17;100.00
5954;BME280;3002;42.642;24.812;2022-11-15T04:28:17;96990.91;;;11.89;100.00
5954;BME280;3002;42.642;24.812;2022-11-15T04:30:43;96970.75;;;11.52;100.00
5954;BME280;3002;42.642;24.812;2022-11-15T04:33:08;96949.88;;;11.00;100.00
5954;BME280;3002;42.642;24.812;2022-11-15T04:35:34;96977.72;;;11.53;100.00
5954;BME280;3002;42.642;24.812;2022-11-15T04:38:00;96946.84;;;11.12;100.00
5954;BME280;3002;42.642;24.812;2022-11-15T04:40:25;96973.78;;;10.96;100.00
5954;BME280;3002;42.642;24.812;2022-11-15T04:42:51;96937.50;;;10.55;100.00
5954;BME280;3002;42.642;24.812;2022-11-15T04:45:17;96930.69;;;11.22;100.00
5954;BME280;3002;42.642;24.812;2022-11-15T04:47:45;96968.94;;;11.43;100.00
5954;BME280;3002;42.642;24.812;2022-11-15T04:50:12;96950.09;;;11.48;100.00
5954;BME280;3002;42.642;24.812;2022-11-15T04:52:50;96938.59;;;11.42;100.00
5954;BME280;3002;42.642;24.812;2022-11-15T04:55:16;96918.63;;;11.88;100.00
5954;BME280;3002;42.642;24.812;2022-11-15T04:57:41;96950.41;;;12.04;100.00
5954;BME280;3002;42.642;24.812;2022-11-15T05:00:09;96978.88;;;12.58;100.00
5954;BME280;3002;42.642;24.812;2022-11-15T05:02:35;96930.94;;;11.94;100.00
5954;BME280;3002;42.642;24.812;2022-11-15T05:05:19;96968.34;;;12.14;100.00
5954;BME280;3002;42.642;24.812;2022-11-15T05:07:45;96935.25;;;11.90;100.00
5954;BME280;3002;42.642;24.812;2022-11-15T05:10:10;96934.66;;;11.93;100.00
5954;BME280;3002;42.642;24.812;2022-11-15T05:12:36;96942.00;;;12.11;100.00
5954;BME280;3002;42.642;24.812;2022-11-15T05:15:02;96960.91;;;12.06;100.00
5954;BME280;3002;42.642;24.812;2022-11-15T05:17:28;96948.88;;;12.22;100.00
5954;BME280;3002;42.642;24.812;2022-11-15T05:19:53;96947.66;;;11.80;100.00
5954;BME280;3002;42.642;24.812;2022-11-15T05:22:19;96970.00;;;12.10;100.00
5954;BME280;3002;42.642;24.812;2022-11-15T05:24:45;96922.13;;;10.76;100.00
5954;BME280;3002;42.642;24.812;2022-11-15T05:27:10;96959.25;;;11.47;100.00
5954;BME280;3002;42.642;24.812;2022-11-15T05:29:36;96944.75;;;11.82;100.00
5954;BME280;3002;42.642;24.812;2022-11-15T05:32:04;96968.34;;;11.80;100.00
5954;BME280;3002;42.642;24.812;2022-11-15T05:34:30;96954.59;;;11.58;100.00
5954;BME280;3002;42.642;24.812;2022-11-15T05:36:56;96933.38;;;11.22;100.00
5954;BME280;3002;42.642;24.812;2022-11-15T05:39:21;96930.88;;;11.31;100.00
5954;BME280;3002;42.642;24.812;2022-11-15T05:41:50;96949.66;;;11.99;100.00
5954;BME280;3002;42.642;24.812;2022-11-15T05:44:22;96972.81;;;12.24;100.00
5954;BME280;3002;42.642;24.812;2022-11-15T05:46:50;96955.06;;;12.23;100.00
5954;BME280;3002;42.642;24.812;2022-11-15T05:49:22;96983.81;;;12.51;100.00
5954;BME280;3002;42.642;24.812;2022-11-15T05:51:51;96941.97;;;12.16;100.00
5954;BME280;3002;42.642;24.812;2022-11-15T05:54:17;96980.72;;;12.63;100.00
5954;BME280;3002;42.642;24.812;2022-11-15T05:56:44;96935.00;;;12.15;100.00
5954;BME280;3002;42.642;24.812;2022-11-15T05:59:10;96949.88;;;12.31;100.00
5954;BME280;3002;42.642;24.812;2022-11-15T06:01:36;96954.00;;;12.24;100.00
5954;BME280;3002;42.642;24.812;2022-11-15T06:04:03;96946.09;;;12.09;100.00
5954;BME280;3002;42.642;24.812;2022-11-15T06:06:28;96947.13;;;12.37;100.00
5954;BME280;3002;42.642;24.812;2022-11-15T06:08:54;96975.03;;;12.65;100.00
5954;BME280;3002;42.642;24.812;2022-11-15T06:11:20;96952.06;;;12.29;100.00
5954;BME280;3002;42.642;24.812;2022-11-15T06:13:45;96984.78;;;12.37;100.00
5954;BME280;3002;42.642;24.812;2022-11-15T06:16:11;96956.19;;;12.17;100.00
5954;BME280;3002;42.642;24.812;2022-11-15T06:18:36;96981.66;;;12.29;100.00
5954;BME280;3002;42.642;24.812;2022-11-15T06:21:02;96961.66;;;11.43;100.00
5954;BME280;3002;42.642;24.812;2022-11-15T06:23:31;96995.38;;;12.52;100.00
5954;BME280;3002;42.642;24.812;2022-11-15T06:25:58;96955.47;;;12.35;100.00
5954;BME280;3002;42.642;24.812;2022-11-15T06:28:24;96972.72;;;12.77;100.00
5954;BME280;3002;42.642;24.812;2022-11-15T06:30:49;96957.50;;;12.48;100.00
5954;BME280;3002;42.642;24.812;2022-11-15T06:33:15;96965.06;;;12.65;100.00
5954;BME280;3002;42.642;24.812;2022-11-15T06:35:40;96972.59;;;12.68;100.00
5954;BME280;3002;42.642;24.812;2022-11-15T06:38:09;96999.50;;;12.68;100.00
5954;BME280;3002;42.642;24.812;2022-11-15T06:40:35;97004.09;;;12.15;100.00
5954;BME280;3002;42.642;24.812;2022-11-15T06:43:03;96955.91;;;11.94;100.00
5954;BME280;3002;42.642;24.812;2022-11-15T06:45:29;96947.53;;;12.25;100.00
5954;BME280;3002;42.642;24.812;2022-11-15T06:47:55;96970.34;;;12.51;100.00
5954;BME280;3002;42.642;24.812;2022-11-15T06:50:21;96977.13;;;12.49;100.00
5954;BME280;3002;42.642;24.812;2022-11-15T06:52:46;97001.66;;;12.90;100.00
5954;BME280;3002;42.642;24.812;2022-11-15T06:55:12;96992.34;;;13.01;100.00
5954;BME280;3002;42.642;24.812;2022-11-15T06:57:46;96989.13;;;13.23;100.00
5954;BME280;3002;42.642;24.812;2022-11-15T07:00:16;97000.69;;;13.24;100.00
5954;BME280;3002;42.642;24.812;2022-11-15T07:02:43;96973.00;;;12.99;100.00
5954;BME280;3002;42.642;24.812;2022-11-15T07:05:08;96956.25;;;12.83;100.00
5954;BME280;3002;42.642;24.812;2022-11-15T07:07:34;96921.03;;;12.61;100.00
5954;BME280;3002;42.642;24.812;2022-11-15T07:10:00;96965.09;;;12.41;100.00
5954;BME280;3002;42.642;24.812;2022-11-15T07:12:25;96943.63;;;12.60;100.00
5954;BME280;3002;42.642;24.812;2022-11-15T07:14:51;96976.22;;;13.20;100.00
5954;BME280;3002;42.642;24.812;2022-11-15T07:17:16;96964.44;;;12.73;100.00
5954;BME280;3002;42.642;24.812;2022-11-15T07:19:43;96966.88;;;11.30;100.00
5954;BME280;3002;42.642;24.812;2022-11-15T07:22:08;96983.66;;;12.43;100.00
5954;BME280;3002;42.642;24.812;2022-11-15T07:24:34;96973.72;;;12.86;100.00
5954;BME280;3002;42.642;24.812;2022-11-15T07:26:59;96974.16;;;12.93;100.00
5954;BME280;3002;42.642;24.812;2022-11-15T07:29:25;96957.09;;;13.22;100.00
5954;BME280;3002;42.642;24.812;2022-11-15T07:31:50;96972.09;;;13.47;100.00
5954;BME280;3002;42.642;24.812;2022-11-15T07:34:16;96955.56;;;13.34;100.00
5954;BME280;3002;42.642;24.812;2022-11-15T07:36:41;96957.50;;;13.48;100.00
5954;BME280;3002;42.642;24.812;2022-11-15T07:39:07;96971.78;;;13.29;100.00
5954;BME280;3002;42.642;24.812;2022-11-15T07:41:32;96981.19;;;13.32;100.00
5954;BME280;3002;42.642;24.812;2022-11-15T07:43:58;96932.47;;;13.47;100.00
5954;BME280;3002;42.642;24.812;2022-11-15T07:46:23;96956.38;;;13.35;100.00
5954;BME280;3002;42.642;24.812;2022-11-15T07:48:48;96964.19;;;13.69;100.00
5954;BME280;3002;42.642;24.812;2022-11-15T07:51:15;96978.63;;;13.59;100.00
5954;BME280;3002;42.642;24.812;2022-11-15T07:53:42;96970.75;;;13.96;100.00
5954;BME280;3002;42.642;24.812;2022-11-15T07:56:08;96969.72;;;13.02;100.00
5954;BME280;3002;42.642;24.812;2022-11-15T07:58:34;96945.22;;;13.23;100.00
5954;BME280;3002;42.642;24.812;2022-11-15T08:01:05;96963.78;;;13.62;100.00
5954;BME280;3002;42.642;24.812;2022-11-15T08:03:31;96954.66;;;13.90;100.00
5954;BME280;3002;42.642;24.812;2022-11-15T08:05:57;96943.13;;;12.34;100.00
5954;BME280;3002;42.642;24.812;2022-11-15T08:08:22;96945.69;;;12.87;100.00
5954;BME280;3002;42.642;24.812;2022-11-15T08:10:48;96956.84;;;13.88;100.00
5954;BME280;3002;42.642;24.812;2022-11-15T08:13:14;96959.97;;;13.96;100.00
5954;BME280;3002;42.642;24.812;2022-11-15T08:15:39;96958.50;;;13.71;100.00
5954;BME280;3002;42.642;24.812;2022-11-15T08:18:13;96956.84;;;13.88;99.95
5954;BME280;3002;42.642;24.812;2022-11-15T08:20:40;96961.31;;;13.47;100.00
5954;BME280;3002;42.642;24.812;2022-11-15T08:23:06;96939.31;;;13.39;100.00
5954;BME280;3002;42.642;24.812;2022-11-15T08:25:34;96931.50;;;13.57;100.00
5954;BME280;3002;42.642;24.812;2022-11-15T08:28:02;96963.22;;;12.66;100.00
5954;BME280;3002;42.642;24.812;2022-11-15T08:30:28;96949.28;;;13.20;100.00
5954;BME280;3002;42.642;24.812;2022-11-15T08:32:57;96935.59;;;12.98;100.00
5954;BME280;3002;42.642;24.812;2022-11-15T08:35:23;96961.28;;;14.12;100.00
5954;BME280;3002;42.642;24.812;2022-11-15T08:37:49;96951.41;;;13.42;100.00
5954;BME280;3002;42.642;24.812;2022-11-15T08:40:15;96934.63;;;12.89;100.00
5954;BME280;3002;42.642;24.812;2022-11-15T08:42:40;96964.72;;;13.15;100.00
5954;BME280;3002;42.642;24.812;2022-11-15T08:45:07;96947.28;;;13.96;100.00
5954;BME280;3002;42.642;24.812;2022-11-15T08:47:33;96933.94;;;14.32;94.31
5954;BME280;3002;42.642;24.812;2022-11-15T08:49:58;96971.75;;;14.73;91.33
5954;BME280;3002;42.642;24.812;2022-11-15T08:52:24;96945.38;;;14.70;89.29
5954;BME280;3002;42.642;24.812;2022-11-15T08:54:49;96927.97;;;14.49;89.04
5954;BME280;3002;42.642;24.812;2022-11-15T08:57:15;96957.09;;;14.33;90.89
5954;BME280;3002;42.642;24.812;2022-11-15T08:59:40;96925.84;;;14.46;87.50
5954;BME280;3002;42.642;24.812;2022-11-15T09:02:06;96948.94;;;13.46;97.93
5954;BME280;3002;42.642;24.812;2022-11-15T09:04:31;96931.03;;;13.36;100.00
5954;BME280;3002;42.642;24.812;2022-11-15T09:06:57;96909.19;;;13.37;97.46
5954;BME280;3002;42.642;24.812;2022-11-15T09:09:22;96911.03;;;13.88;95.33
5954;BME280;3002;42.642;24.812;2022-11-15T09:11:48;96897.66;;;14.11;91.70
5954;BME280;3002;42.642;24.812;2022-11-15T09:14:16;96904.38;;;13.67;94.99
5954;BME280;3002;42.642;24.812;2022-11-15T09:16:41;96905.06;;;14.33;92.97
5954;BME280;3002;42.642;24.812;2022-11-15T09:19:07;96907.06;;;14.82;87.94
5954;BME280;3002;42.642;24.812;2022-11-15T09:21:32;96916.78;;;13.68;99.24
5954;BME280;3002;42.642;24.812;2022-11-15T09:23:58;96876.69;;;13.48;100.00
5954;BME280;3002;42.642;24.812;2022-11-15T09:26:24;96879.38;;;13.94;94.67
5954;BME280;3002;42.642;24.812;2022-11-15T09:28:49;96914.16;;;14.51;88.46
5954;BME280;3002;42.642;24.812;2022-11-15T09:31:15;96881.78;;;14.51;87.05
5954;BME280;3002;42.642;24.812;2022-11-15T09:33:43;96905.25;;;14.36;87.73
5954;BME280;3002;42.642;24.812;2022-11-15T09:36:09;96897.38;;;14.40;88.22
5954;BME280;3002;42.642;24.812;2022-11-15T09:38:35;96897.34;;;14.81;85.16
5954;BME280;3002;42.642;24.812;2022-11-15T09:46:46;96885.03;;;15.11;81.28
5954;BME280;3002;42.642;24.812;2022-11-15T09:49:17;96882.50;;;14.92;82.94
5954;BME280;3002;42.642;24.812;2022-11-15T09:51:45;96871.47;;;15.03;81.64
5954;BME280;3002;42.642;24.812;2022-11-15T09:54:39;96842.75;;;15.07;78.12
5954;BME280;3002;42.642;24.812;2022-11-15T09:57:31;96838.50;;;14.69;79.98
5954;BME280;3002;42.642;24.812;2022-11-15T10:00:20;96867.88;;;15.07;80.23
5954;BME280;3002;42.642;24.812;2022-11-15T10:03:33;96867.25;;;15.10;80.88
5954;BME280;3002;42.642;24.812;2022-11-15T10:06:02;96863.28;;;14.71;79.15
5954;BME280;3002;42.642;24.812;2022-11-15T10:08:45;96861.31;;;14.63;78.31
5954;BME280;3002;42.642;24.812;2022-11-15T10:11:22;96842.41;;;14.63;76.76
5954;BME280;3002;42.642;24.812;2022-11-15T10:13:50;96830.94;;;14.80;77.82
5954;BME280;3002;42.642;24.812;2022-11-15T10:16:43;96850.31;;;15.18;75.50
5954;BME280;3002;42.642;24.812;2022-11-15T10:19:23;96853.44;;;14.89;75.58
5954;BME280;3002;42.642;24.812;2022-11-15T10:22:21;96833.00;;;14.61;76.31
5954;BME280;3002;42.642;24.812;2022-11-15T10:24:58;96815.97;;;14.74;76.12
5954;BME280;3002;42.642;24.812;2022-11-15T10:27:25;96819.28;;;14.71;76.26
5954;BME280;3002;42.642;24.812;2022-11-15T10:29:51;96833.75;;;14.75;77.27
5954;BME280;3002;42.642;24.812;2022-11-15T10:32:20;96833.88;;;14.70;76.77
5954;BME280;3002;42.642;24.812;2022-11-15T10:34:48;96796.22;;;14.51;76.64
5954;BME280;3002;42.642;24.812;2022-11-15T10:37:14;96812.25;;;14.06;79.87
5954;BME280;3002;42.642;24.812;2022-11-15T10:39:40;96801.03;;;14.27;79.45
5954;BME280;3002;42.642;24.812;2022-11-15T10:42:26;96832.06;;;14.79;77.60
5954;BME280;3002;42.642;24.812;2022-11-15T10:44:52;96799.25;;;14.50;77.07
5954;BME280;3002;42.642;24.812;2022-11-15T10:50:04;96820.81;;;14.86;76.94
5954;BME280;3002;42.642;24.812;2022-11-15T10:52:34;96807.44;;;14.58;78.72
5954;BME280;3002;42.642;24.812;2022-11-15T10:57:38;96810.38;;;14.70;74.97
5954;BME280;3002;42.642;24.812;2022-11-15T11:00:13;96794.44;;;14.33;78.25
5954;BME280;3002;42.642;24.812;2022-11-15T11:02:58;96797.63;;;14.85;75.79
5954;BME280;3002;42.642;24.812;2022-11-15T11:08:25;96788.56;;;15.34;71.76
5954;BME280;3002;42.642;24.812;2022-11-15T11:10:58;96790.69;;;15.15;73.79
5954;BME280;3002;42.642;24.812;2022-11-15T11:13:26;96787.22;;;15.45;71.52
5954;BME280;3002;42.642;24.812;2022-11-15T11:19:05;96783.72;;;15.76;69.63
5954;BME280;3002;42.642;24.812;2022-11-15T11:21:51;96772.19;;;15.62;70.10
5954;BME280;3002;42.642;24.812;2022-11-15T11:24:36;96757.09;;;15.30;70.69
5954;BME280;3002;42.642;24.812;2022-11-15T11:33:10;96748.69;;;16.28;68.39
5954;BME280;3002;42.642;24.812;2022-11-15T11:36:03;96747.28;;;16.48;66.67
5954;BME280;3002;42.642;24.812;2022-11-15T11:41:30;96726.28;;;15.31;71.00
5954;BME280;3002;42.642;24.812;2022-11-15T11:44:24;96732.28;;;15.27;72.26
5954;BME280;3002;42.642;24.812;2022-11-15T11:47:04;96729.75;;;16.19;67.82
5954;BME280;3002;42.642;24.812;2022-11-15T11:49:46;96722.56;;;15.97;69.06
5954;BME280;3002;42.642;24.812;2022-11-15T11:52:34;96725.41;;;15.21;70.16
5954;BME280;3002;42.642;24.812;2022-11-15T11:55:23;96725.75;;;16.17;67.77
5954;BME280;3002;42.642;24.812;2022-11-15T12:00:33;96692.94;;;18.32;57.62
5954;BME280;3002;42.642;24.812;2022-11-15T12:05:42;96707.41;;;17.56;60.43
5954;BME280;3002;42.642;24.812;2022-11-15T12:10:45;96692.19;;;16.09;66.70
5954;BME280;3002;42.642;24.812;2022-11-15T12:13:20;96711.47;;;16.85;63.86
5954;BME280;3002;42.642;24.812;2022-11-15T12:16:23;96703.44;;;17.53;59.97
5954;BME280;3002;42.642;24.812;2022-11-15T12:18:53;96689.41;;;18.10;58.16
5954;BME280;3002;42.642;24.812;2022-11-15T12:21:54;96693.00;;;21.13;50.90
5954;BME280;3002;42.642;24.812;2022-11-15T12:24:35;96686.91;;;21.32;50.31
5954;BME280;3002;42.642;24.812;2022-11-15T12:27:22;96686.78;;;21.13;49.28
5954;BME280;3002;42.642;24.812;2022-11-15T12:30:02;96683.81;;;22.51;45.38
5954;BME280;3002;42.642;24.812;2022-11-15T12:32:34;96669.53;;;19.39;51.84
5954;BME280;3002;42.642;24.812;2022-11-15T12:35:03;96668.53;;;19.43;53.67
5954;BME280;3002;42.642;24.812;2022-11-15T12:42:41;96670.38;;;20.69;48.62
5954;BME280;3002;42.642;24.812;2022-11-15T12:45:28;96685.22;;;21.75;46.90
5954;BME280;3002;42.642;24.812;2022-11-15T12:48:21;96676.13;;;17.97;55.58
5954;BME280;3002;42.642;24.812;2022-11-15T12:50:54;96671.56;;;18.72;54.40
5954;BME280;3002;42.642;24.812;2022-11-15T13:06:43;96645.91;;;22.88;44.01
5954;BME280;3002;42.642;24.812;2022-11-15T13:12:10;96631.06;;;22.89;43.48
5954;BME280;3002;42.642;24.812;2022-11-15T13:19:46;96631.75;;;19.01;51.82
5954;BME280;3002;42.642;24.812;2022-11-15T13:22:12;96628.88;;;20.19;48.96
5954;BME280;3002;42.642;24.812;2022-11-15T13:24:57;96638.03;;;18.68;52.45
5954;BME280;3002;42.642;24.812;2022-11-15T13:27:22;96600.97;;;16.44;58.39
5954;BME280;3002;42.642;24.812;2022-11-15T13:29:48;96609.19;;;18.76;53.81
5954;BME280;3002;42.642;24.812;2022-11-15T13:32:15;96617.31;;;20.78;48.80
5954;BME280;3002;42.642;24.812;2022-11-15T13:34:49;96621.22;;;20.93;47.67
5954;BME280;3002;42.642;24.812;2022-11-15T13:39:47;96623.88;;;21.05;47.56
5954;BME280;3002;42.642;24.812;2022-11-15T13:42:18;96628.63;;;21.40;46.60
5954;BME280;3002;42.642;24.812;2022-11-15T13:45:01;96605.97;;;20.20;49.46
5954;BME280;3002;42.642;24.812;2022-11-15T13:47:28;96620.75;;;20.91;47.96
5954;BME280;3002;42.642;24.812;2022-11-15T13:49:57;96604.50;;;20.23;48.73
5954;BME280;3002;42.642;24.812;2022-11-15T13:52:26;96597.25;;;21.30;46.75
5954;BME280;3002;42.642;24.812;2022-11-15T13:54:58;96610.72;;;19.71;49.93
5954;BME280;3002;42.642;24.812;2022-11-15T13:57:35;96597.91;;;18.98;52.16
5954;BME280;3002;42.642;24.812;2022-11-15T14:00:22;96601.56;;;19.51;51.45
5954;BME280;3002;42.642;24.812;2022-11-15T14:02:49;96606.13;;;20.12;50.02
5954;BME280;3002;42.642;24.812;2022-11-15T14:05:18;96605.91;;;20.32;48.78
5954;BME280;3002;42.642;24.812;2022-11-15T14:07:55;96600.19;;;18.96;51.76
5954;BME280;3002;42.642;24.812;2022-11-15T14:12:56;96585.34;;;17.64;55.46
5954;BME280;3002;42.642;24.812;2022-11-15T14:15:33;96606.84;;;18.53;54.02
5954;BME280;3002;42.642;24.812;2022-11-15T14:17:59;96592.69;;;17.64;55.35
5954;BME280;3002;42.642;24.812;2022-11-15T14:20:31;96598.22;;;18.51;53.98
5954;BME280;3002;42.642;24.812;2022-11-15T14:23:05;96559.09;;;18.19;53.96
5954;BME280;3002;42.642;24.812;2022-11-15T14:25:52;96598.38;;;17.71;56.27
5954;BME280;3002;42.642;24.812;2022-11-15T14:30:56;96583.69;;;16.66;58.97
5954;BME280;3002;42.642;24.812;2022-11-15T14:33:33;96574.34;;;15.42;62.94
5954;BME280;3002;42.642;24.812;2022-11-15T14:36:12;96579.81;;;15.68;63.64
5954;BME280;3002;42.642;24.812;2022-11-15T14:38:38;96568.88;;;15.16;65.43
5954;BME280;3002;42.642;24.812;2022-11-15T14:41:04;96556.56;;;14.93;66.55
5954;BME280;3002;42.642;24.812;2022-11-15T14:43:29;96541.38;;;14.66;68.70
5954;BME280;3002;42.642;24.812;2022-11-15T14:45:55;96580.03;;;14.84;70.13
5954;BME280;3002;42.642;24.812;2022-11-15T14:48:20;96561.25;;;14.70;71.60
5954;BME280;3002;42.642;24.812;2022-11-15T14:50:47;96567.34;;;14.31;73.83
5954;BME280;3002;42.642;24.812;2022-11-15T14:53:16;96578.69;;;13.97;77.00
5954;BME280;3002;42.642;24.812;2022-11-15T14:55:42;96571.94;;;13.63;79.22
5954;BME280;3002;42.642;24.812;2022-11-15T14:58:09;96579.06;;;13.45;81.57